sensor_id;sensor_type;location;lat;lon;timestamp;P1;durP1;ratioP1;P2;durP2;ratioP2
50737;SDS011;36703;48.154;17.126;2023-02-13T00:01:14;21.45;;;9.52;;
50737;SDS011;36703;48.154;17.126;2023-02-13T00:05:16;19.48;;;9.75;;
50737;SDS011;36703;48.154;17.126;2023-02-13T00:09:18;18.27;;;9.40;;
50737;SDS011;36703;48.154;17.126;2023-02-13T00:17:21;20.63;;;10.02;;
50737;SDS011;36703;48.154;17.126;2023-02-13T00:21:22;21.35;;;9.88;;
50737;SDS011;36703;48.154;17.126;2023-02-13T00:25:24;22.88;;;11.10;;
50737;SDS011;36703;48.154;17.126;2023-02-13T00:29:26;21.42;;;10.20;;
50737;SDS011;36703;48.154;17.126;2023-02-13T00:33:27;18.30;;;9.93;;
50737;SDS011;36703;48.154;17.126;2023-02-13T00:37:29;20.63;;;10.02;;
50737;SDS011;36703;48.154;17.126;2023-02-13T00:41:30;24.30;;;10.60;;
50737;SDS011;36703;48.154;17.126;2023-02-13T00:45:32;22.85;;;10.15;;
50737;SDS011;36703;48.154;17.126;2023-02-13T00:49:34;21.02;;;10.88;;
50737;SDS011;36703;48.154;17.126;2023-02-13T00:53:36;23.00;;;10.82;;
50737;SDS011;36703;48.154;17.126;2023-02-13T00:57:39;18.73;;;10.90;;
50737;SDS011;36703;48.154;17.126;2023-02-13T01:05:43;23.83;;;11.18;;
50737;SDS011;36703;48.154;17.126;2023-02-13T01:09:45;22.67;;;12.18;;
50737;SDS011;36703;48.154;17.126;2023-02-13T01:17:48;25.88;;;11.45;;
50737;SDS011;36703;48.154;17.126;2023-02-13T01:21:50;24.77;;;11.75;;
50737;SDS011;36703;48.154;17.126;2023-02-13T01:25:53;26.92;;;12.32;;
50737;SDS011;36703;48.154;17.126;2023-02-13T01:29:54;24.40;;;11.57;;
50737;SDS011;36703;48.154;17.126;2023-02-13T01:33:57;26.15;;;12.18;;
50737;SDS011;36703;48.154;17.126;2023-02-13T01:37:59;27.42;;;12.88;;
50737;SDS011;36703;48.154;17.126;2023-02-13T01:42:01;28.63;;;13.23;;
50737;SDS011;36703;48.154;17.126;2023-02-13T01:46:04;25.10;;;12.45;;
50737;SDS011;36703;48.154;17.126;2023-02-13T01:54:14;22.67;;;12.32;;
50737;SDS011;36703;48.154;17.126;2023-02-13T01:58:23;24.80;;;12.38;;
50737;SDS011;36703;48.154;17.126;2023-02-13T02:02:28;25.75;;;12.38;;
50737;SDS011;36703;48.154;17.126;2023-02-13T02:06:41;23.23;;;12.50;;
50737;SDS011;36703;48.154;17.126;2023-02-13T02:10:57;28.90;;;12.48;;
50737;SDS011;36703;48.154;17.126;2023-02-13T02:15:07;26.10;;;13.30;;
50737;SDS011;36703;48.154;17.126;2023-02-13T02:28:38;31.00;;;12.90;;
50737;SDS011;36703;48.154;17.126;2023-02-13T02:46:11;28.17;;;13.07;;
50737;SDS011;36703;48.154;17.126;2023-02-13T02:50:40;23.67;;;12.50;;
50737;SDS011;36703;48.154;17.126;2023-02-13T02:55:07;27.88;;;13.10;;
50737;SDS011;36703;48.154;17.126;2023-02-13T02:59:29;25.35;;;13.60;;
50737;SDS011;36703;48.154;17.126;2023-02-13T03:03:51;26.67;;;13.02;;
50737;SDS011;36703;48.154;17.126;2023-02-13T03:08:15;26.77;;;13.10;;
50737;SDS011;36703;48.154;17.126;2023-02-13T03:12:53;28.98;;;13.95;;
50737;SDS011;36703;48.154;17.126;2023-02-13T03:17:36;32.80;;;13.07;;
50737;SDS011;36703;48.154;17.126;2023-02-13T03:22:05;29.00;;;13.60;;
50737;SDS011;36703;48.154;17.126;2023-02-13T03:26:55;28.52;;;13.77;;
50737;SDS011;36703;48.154;17.126;2023-02-13T03:31:53;29.65;;;14.95;;
50737;SDS011;36703;48.154;17.126;2023-02-13T03:45:27;30.27;;;14.50;;
50737;SDS011;36703;48.154;17.126;2023-02-13T03:49:51;31.08;;;13.98;;
50737;SDS011;36703;48.154;17.126;2023-02-13T03:54:30;29.05;;;13.80;;
50737;SDS011;36703;48.154;17.126;2023-02-13T03:58:56;33.53;;;15.48;;
50737;SDS011;36703;48.154;17.126;2023-02-13T04:03:23;27.63;;;14.50;;
50737;SDS011;36703;48.154;17.126;2023-02-13T04:07:30;31.27;;;15.35;;
50737;SDS011;36703;48.154;17.126;2023-02-13T04:11:37;26.38;;;13.63;;
50737;SDS011;36703;48.154;17.126;2023-02-13T04:16:06;28.48;;;13.95;;
50737;SDS011;36703;48.154;17.126;2023-02-13T04:20:13;28.42;;;13.38;;
50737;SDS011;36703;48.154;17.126;2023-02-13T04:24:15;24.60;;;13.13;;
50737;SDS011;36703;48.154;17.126;2023-02-13T04:32:18;26.38;;;12.82;;
50737;SDS011;36703;48.154;17.126;2023-02-13T04:36:19;28.50;;;13.20;;
50737;SDS011;36703;48.154;17.126;2023-02-13T04:40:21;29.73;;;14.38;;
50737;SDS011;36703;48.154;17.126;2023-02-13T04:44:23;25.17;;;12.63;;
50737;SDS011;36703;48.154;17.126;2023-02-13T04:48:24;25.73;;;13.43;;
50737;SDS011;36703;48.154;17.126;2023-02-13T04:52:26;26.58;;;13.95;;
50737;SDS011;36703;48.154;17.126;2023-02-13T04:56:27;29.35;;;13.75;;
50737;SDS011;36703;48.154;17.126;2023-02-13T05:00:29;30.55;;;14.43;;
50737;SDS011;36703;48.154;17.126;2023-02-13T05:04:30;28.55;;;14.10;;
50737;SDS011;36703;48.154;17.126;2023-02-13T05:08:32;27.85;;;13.68;;
50737;SDS011;36703;48.154;17.126;2023-02-13T05:12:34;33.58;;;13.55;;
50737;SDS011;36703;48.154;17.126;2023-02-13T05:16:37;25.08;;;13.25;;
50737;SDS011;36703;48.154;17.126;2023-02-13T05:24:40;29.33;;;14.35;;
50737;SDS011;36703;48.154;17.126;2023-02-13T05:28:41;31.23;;;14.93;;
50737;SDS011;36703;48.154;17.126;2023-02-13T05:33:01;29.75;;;13.57;;
50737;SDS011;36703;48.154;17.126;2023-02-13T05:41:04;29.15;;;12.73;;
50737;SDS011;36703;48.154;17.126;2023-02-13T05:45:06;24.70;;;11.05;;
50737;SDS011;36703;48.154;17.126;2023-02-13T05:49:09;19.05;;;10.60;;
50737;SDS011;36703;48.154;17.126;2023-02-13T05:53:13;20.70;;;10.23;;
50737;SDS011;36703;48.154;17.126;2023-02-13T06:01:16;22.65;;;11.23;;
50737;SDS011;36703;48.154;17.126;2023-02-13T06:05:17;29.10;;;12.70;;
50737;SDS011;36703;48.154;17.126;2023-02-13T06:13:21;28.95;;;13.05;;
50737;SDS011;36703;48.154;17.126;2023-02-13T06:17:23;27.27;;;12.82;;
